Latest Weather Observations for Kadina

IDS60801

Issued at 11:41 am CDT Thursday 21 November 2019 (issued every 10 minutes, with the page automatically refreshed every 10 minutes)

About weather observations | Map of weather stations | Latest weather observations for SA | Other Formats
Station Details ID: 022050 Name: KADINA AWS Lat: -33.97 Lon: 137.66 Height: 41.14 m
Data from the previous 72 hours. | See also: Recent months at Kadina
Date/Time
CDT
Temp
°C
App
Temp
°C
Dew
Point
°C
Rel
Hum
%
Delta-T
°C
Wind Press
QNH
hPa
Press
MSL
hPa
Rain since
9am
mm
Dir  Spd
km/h
Gust
km/h
Spd
kts
Gust
kts
21/11:30am 18.1 12.4 13.0 72 2.9 SW 35 48 19 26 1012.4 1012.3 0.0
21/11:00am 17.8 11.4 13.3 75 2.5 SW 39 50 21 27 1011.9 1011.8 0.0
21/10:30am 17.3 11.7 13.4 78 2.2 SW 35 46 19 25 1011.7 1011.6 0.0
21/10:00am 17.8 12.1 13.1 74 2.6 SW 35 46 19 25 1011.3 1011.2 0.0
21/09:30am 17.9 12.8 13.2 74 2.7 SW 32 44 17 24 1011.3 1011.2 0.0
21/09:00am 17.6 11.9 13.1 75 2.5 SW 35 44 19 24 1011.0 1010.9 0.0
21/08:30am 17.3 12.2 13.0 76 2.4 SW 32 41 17 22 1010.6 1010.5 0.0
21/08:00am 16.8 12.3 13.7 82 1.8 SW 30 39 16 21 1009.9 1009.8 0.0
21/07:30am 17.0 11.8 13.5 80 2.0 WSW 33 46 18 25 1008.7 1008.6 0.0
21/07:06am 17.1 11.5 13.2 78 2.2 WSW 35 54 19 29 1008.4 1008.3 0.0
21/07:00am 17.0 10.3 13.3 79 2.1 WSW 41 54 22 29 1007.9 1007.8 0.0
21/06:30am 16.9 10.7 13.8 82 1.8 WSW 39 54 21 29 1006.0 1005.8 0.0
21/06:06am 17.3 10.1 13.8 80 2.0 WSW 44 63 24 34 1005.2 1005.0 0.0
21/06:00am 17.5 10.0 13.8 79 2.1 WSW 46 63 25 34 1005.2 1005.0 0.0
21/05:30am 18.2 11.3 14.5 79 2.1 WSW 44 63 24 34 1004.4 1004.2 0.0
21/05:00am 18.9 11.6 14.4 75 2.6 WSW 46 65 25 35 1002.9 1002.7 0.0
21/04:47am 19.2 12.0 13.6 70 3.2 WSW 44 63 24 34 1002.5 1002.4 0.0
21/04:30am 20.0 12.9 13.5 66 3.7 WSW 43 59 23 32 1001.7 1001.6 0.0
21/04:04am 19.9 13.7 14.9 73 2.9 W 41 59 22 32 1000.9 1000.8 0.0
21/04:00am 20.1 13.5 14.9 72 3.1 W 43 59 23 32 1000.8 1000.7 0.0
21/03:53am 22.0 18.1 14.4 62 4.5 WNW 28 50 15 27 1000.4 1000.3 0.0
21/03:30am 24.8 21.0 11.0 42 7.8 WNW 22 28 12 15 999.7 999.6 0.0
21/03:06am 27.0 20.9 9.8 34 9.6 NNW 32 57 17 31 999.4 999.3 0.0
21/03:00am 29.0 22.5 6.4 24 12.1 N 30 39 16 21 998.0 997.9 0.0
21/02:30am 30.4 22.6 4.9 20 13.4 N 35 44 19 24 997.6 997.5 0.0
21/02:00am 31.0 24.4 2.3 16 14.4 NNE 26 35 14 19 997.8 997.7 0.0
21/01:30am 30.6 24.6 3.6 18 13.9 NNE 24 33 13 18 998.2 998.1 0.0
21/01:00am 31.2 24.3 2.4 16 14.5 NNE 28 37 15 20 998.7 998.6 0.0
21/12:30am 32.3 24.4 2.4 15 15.2 N 33 41 18 22 999.2 999.1 0.0
21/12:00am 32.8 25.0 1.8 14 15.7 N 32 41 17 22 999.7 999.6 0.0
 
Date/Time
CDT
Temp
°C
App
Temp
°C
Dew
Point
°C
Rel
Hum
%
Delta-T
°C
Wind Press
QNH
hPa
Press
MSL
hPa
Rain since
9am
mm
Dir  Spd
km/h
Gust
km/h
Spd
kts
Gust
kts
20/11:30pm 32.7 25.1 2.7 15 15.4 N 32 43 17 23 1000.0 999.9 0.0
20/11:00pm 33.6 25.7 2.4 14 15.9 N 33 41 18 22 1000.3 1000.2 0.0
20/10:30pm 33.8 26.2 2.6 14 16.1 N 32 39 17 21 1000.5 1000.4 0.0
20/10:00pm 33.9 26.6 2.7 14 16.0 N 30 39 16 21 1000.6 1000.5 0.0
20/09:30pm 33.9 26.8 3.7 15 15.8 N 30 37 16 20 1000.6 1000.5 0.0
20/09:00pm 33.9 26.6 4.6 16 15.6 N 32 39 17 21 1000.6 1000.5 0.0
20/08:30pm 33.2 27.5 6.5 19 14.6 N 26 35 14 19 1000.5 1000.4 0.0
20/08:00pm 34.0 27.1 4.6 16 15.6 N 30 39 16 21 1000.5 1000.4 0.0
20/07:30pm 34.2 27.7 6.5 18 15.2 N 30 35 16 19 1000.4 1000.3 0.0
20/07:00pm 36.0 28.7 4.3 14 16.9 N 32 39 17 21 1000.3 1000.2 0.0
20/06:30pm 38.0 29.2 3.7 12 18.4 N 39 52 21 28 1000.3 1000.2 0.0
20/06:00pm 39.0 29.7 3.2 11 19.1 N 41 56 22 30 1000.3 1000.2 0.0
20/05:30pm 39.7 29.9 2.4 10 19.8 N 43 57 23 31 1000.4 1000.3 0.0
20/05:00pm 40.7 29.9 1.7 9 20.5 N 48 59 26 32 1000.7 1000.6 0.0
20/04:50pm 40.5 30.0 1.5 9 20.4 N 46 67 25 36 1001.0 1000.9 0.0
20/04:30pm 40.9 29.7 1.8 9 20.7 N 50 63 27 34 1001.1 1001.0 0.0
20/04:13pm 41.6 30.2 0.7 8 21.3 N 50 69 27 37 1001.2 1001.1 0.0
20/04:00pm 42.0 30.3 1.0 8 21.5 N 52 67 28 36 1001.5 1001.4 0.0
20/03:30pm 42.5 32.0 1.3 8 21.8 N 46 61 25 33 1001.9 1001.8 0.0
20/03:00pm 42.2 31.3 1.1 8 21.7 N 48 61 26 33 1002.4 1002.3 0.0
20/02:30pm 41.9 30.2 0.9 8 21.5 N 52 63 28 34 1003.1 1002.9 0.0
20/02:05pm 41.0 29.6 0.3 8 21.0 N 50 70 27 38 1003.6 1003.4 0.0
20/02:00pm 41.6 30.6 0.7 8 21.3 N 48 61 26 33 1003.7 1003.5 0.0
20/01:30pm 41.1 29.4 -1.5 7 21.4 N 50 69 27 37 1004.2 1004.0 0.0
20/01:00pm 40.8 28.2 0.1 8 20.9 N 56 70 30 38 1004.8 1004.6 0.0
20/12:45pm 40.3 28.0 -0.3 8 20.6 N 54 72 29 39 1005.0 1004.8 0.0
20/12:30pm 40.3 28.8 -0.3 8 20.7 N 50 65 27 35 1005.2 1005.0 0.0
20/12:00pm 39.8 29.4 -0.6 8 20.4 N 44 56 24 30 1005.7 1005.5 0.0
20/11:30am 37.9 27.5 -0.4 9 19.2 N 44 57 24 31 1006.2 1006.0 0.0
20/11:00am 37.3 27.0 0.6 10 18.6 N 44 56 24 30 1006.4 1006.3 0.0
20/10:30am 35.4 25.5 1.7 12 17.2 N 43 54 23 29 1006.6 1006.5 0.0
20/10:00am 34.0 25.1 2.8 14 16.0 N 39 52 21 28 1006.9 1006.8 0.0
20/09:30am 33.4 24.4 2.3 14 15.8 N 39 52 21 28 1007.0 1006.9 0.0
20/09:00am 33.4 24.4 2.3 14 15.8 N 39 46 21 25 1007.3 1007.2 0.0
20/08:30am 32.3 23.7 2.4 15 15.2 N 37 46 20 25 1007.4 1007.3 0.0
20/08:00am 31.3 23.6 2.5 16 14.5 N 32 41 17 22 1007.2 1007.1 0.0
20/07:30am 27.8 23.1 6.0 25 11.4 NNE 20 26 11 14 1007.1 1007.0 0.0
20/07:00am 23.4 19.3 6.2 33 8.8 NNE 17 20 9 11 1007.1 1007.0 0.0
20/06:30am 20.9 16.8 6.1 38 7.5 NNE 17 20 9 11 1007.0 1006.9 0.0
20/06:00am 21.0 16.7 5.4 36 7.8 NNE 17 19 9 10 1006.9 1006.8 0.0
20/05:30am 22.8 17.8 4.8 31 9.0 NNE 20 26 11 14 1006.8 1006.7 0.0
20/05:00am 23.6 17.6 3.5 27 9.8 NNE 24 28 13 15 1006.8 1006.7 0.0
20/04:30am 23.4 18.2 3.4 27 9.7 NNE 20 24 11 13 1006.8 1006.7 0.0
20/04:00am 21.9 16.7 3.6 30 8.8 NNE 20 24 11 13 1006.7 1006.6 0.0
20/03:30am 22.5 18.1 7.5 38 7.8 NNE 20 24 11 13 1007.0 1006.9 0.0
20/03:00am 20.0 18.1 13.0 64 4.0 NNE 15 19 8 10 1007.4 1007.3 0.0
20/02:30am 20.1 18.1 13.8 67 3.6 N 17 20 9 11 1007.7 1007.6 0.0
20/02:00am 19.2 17.1 11.3 60 4.3 NNE 13 17 7 9 1008.2 1008.1 0.0
20/01:30am 17.0 14.7 8.9 59 4.2 NE 11 13 6 7 1008.4 1008.3 0.0
20/01:00am 17.9 16.2 10.0 60 4.2 E 9 11 5 6 1009.1 1009.0 0.0
20/12:30am 17.8 14.9 9.7 59 4.3 ESE 15 17 8 9 1009.3 1009.2 0.0
20/12:00am 18.6 15.9 10.4 59 4.4 ESE 15 17 8 9 1009.8 1009.7 0.0
 
Date/Time
CDT
Temp
°C
App
Temp
°C
Dew
Point
°C
Rel
Hum
%
Delta-T
°C
Wind Press
QNH
hPa
Press
MSL
hPa
Rain since
9am
mm
Dir  Spd
km/h
Gust
km/h
Spd
kts
Gust
kts
19/11:30pm 19.3 16.6 10.3 56 4.9 ESE 15 19 8 10 1010.1 1010.0 0.0
19/11:00pm 20.2 16.9 9.7 51 5.6 E 17 19 9 10 1010.6 1010.5 0.0
19/10:30pm 20.9 17.6 9.5 48 6.1 E 17 19 9 10 1010.7 1010.6 0.0
19/10:00pm 21.1 17.3 9.0 46 6.4 E 19 22 10 12 1010.8 1010.7 0.0
19/09:30pm 21.8 18.2 8.3 42 7.1 ESE 17 24 9 13 1011.2 1011.1 0.0
19/09:00pm 23.1 18.5 6.4 34 8.6 ESE 20 26 11 14 1011.3 1011.2 0.0
19/08:30pm 24.9 20.0 7.1 32 9.3 SE 22 28 12 15 1011.1 1011.0 0.0
19/08:00pm 26.3 23.7 9.2 34 9.4 S 13 17 7 9 1010.9 1010.8 0.0
19/07:30pm 27.5 24.9 10.7 35 9.5 SSW 15 20 8 11 1010.8 1010.7 0.0
19/07:00pm 27.6 24.9 9.0 31 10.2 SSW 13 19 7 10 1010.5 1010.4 0.0
19/06:30pm 29.1 24.8 7.1 25 11.8 SW 19 20 10 11 1010.4 1010.3 0.0
19/06:00pm 32.6 29.5 7.4 21 13.9 WSW 13 17 7 9 1010.1 1010.0 0.0
19/05:30pm 33.3 30.6 5.8 18 14.8 W 9 17 5 9 1010.2 1010.1 0.0
19/05:00pm 32.6 30.1 6.7 20 14.1 W 9 15 5 8 1010.3 1010.2 0.0
19/04:30pm 31.7 28.3 6.0 20 13.8 WSW 13 19 7 10 1010.8 1010.7 0.0
19/04:00pm 31.8 27.8 6.8 21 13.6 WSW 17 20 9 11 1011.2 1011.1 0.0
19/03:30pm 31.4 28.5 9.6 26 12.4 SW 15 20 8 11 1011.3 1011.2 0.0
19/03:00pm 29.9 26.9 7.8 25 12.1 W 13 17 7 9 1011.5 1011.4 0.0
19/02:30pm 27.7 24.8 12.9 40 8.7 WSW 20 26 11 14 1012.3 1012.2 0.0
19/02:00pm 28.1 24.4 12.8 38 9.0 WSW 24 30 13 16 1012.6 1012.5 0.0
19/01:30pm 28.7 25.3 11.3 34 10.0 W 20 26 11 14 1012.9 1012.8 0.0
19/01:00pm 29.4 26.3 11.5 33 10.4 WSW 19 24 10 13 1013.0 1012.9 0.0
19/12:30pm 28.7 26.4 11.7 35 9.8 WSW 15 22 8 12 1013.2 1013.1 0.0
19/12:00pm 28.0 26.2 12.0 37 9.3 SW 13 22 7 12 1013.4 1013.3 0.0
19/11:30am 27.6 25.2 12.8 40 8.7 SW 17 22 9 12 1013.6 1013.5 0.0
19/11:00am 25.8 23.6 13.3 46 7.3 WSW 17 22 9 12 1014.1 1014.0 0.0
19/10:30am 25.8 23.8 11.6 41 8.1 S 13 22 7 12 1014.0 1013.9 0.0
19/10:00am 25.1 23.8 11.3 42 7.8 SSE 9 15 5 8 1014.1 1014.0 0.0
19/09:30am 23.9 23.2 11.9 47 6.8 SSE 7 15 4 8 1014.1 1014.0 0.0
19/09:00am 22.3 21.2 13.1 56 5.3 ESE 11 17 6 9 1013.8 1013.7 0.0
19/08:30am 20.4 18.3 13.6 65 3.9 SE 17 20 9 11 1013.6 1013.5 0.0
19/08:00am 19.3 17.4 14.1 72 3.0 ESE 17 20 9 11 1013.7 1013.6 0.0
19/07:30am 16.8 14.8 12.7 77 2.3 ESE 15 17 8 9 1013.6 1013.5 0.0
19/07:00am 14.2 12.1 9.8 75 2.3 SE 11 15 6 8 1013.3 1013.2 0.0
19/06:30am 10.9 8.0 6.5 74 2.1 ESE 11 13 6 7 1013.0 1012.9 0.0
19/06:00am 11.4 9.2 7.7 78 1.8 SE 9 11 5 6 1012.8 1012.7 0.0
19/05:30am 11.0 8.3 7.3 78 1.8 ESE 11 13 6 7 1012.5 1012.4 0.0
19/05:00am 13.8 12.4 10.8 82 1.6 S 9 13 5 7 1012.4 1012.3 0.0
19/04:30am 13.0 10.6 8.7 75 2.2 SSW 11 17 6 9 1012.3 1012.2 0.0
19/04:00am 11.5 8.5 4.3 61 3.2 SSE 9 11 5 6 1012.3 1012.2 0.0
19/03:30am 12.3 10.0 5.9 65 3.0 SSE 7 7 4 4 1012.2 1012.1 0.0
19/03:00am 13.1 11.0 6.0 62 3.4 SSE 6 7 3 4 1012.3 1012.2 0.0
19/02:30am 13.8 11.9 7.6 66 3.1 SSE 7 9 4 5 1012.3 1012.2 0.0
19/02:00am 14.9 13.2 8.4 65 3.3 SSE 7 9 4 5 1012.4 1012.3 0.0
19/01:30am 15.0 13.1 7.5 61 3.7 ESE 7 11 4 6 1012.6 1012.5 0.0
19/01:00am 14.8 11.3 5.6 54 4.4 SSE 13 15 7 8 1012.9 1012.8 0.0
19/12:30am 16.0 12.8 5.0 48 5.2 SE 11 13 6 7 1013.0 1012.9 0.0
19/12:00am 18.4 15.5 6.3 45 6.0 SSE 11 13 6 7 1013.2 1013.1 0.0
 
Date/Time
CDT
Temp
°C
App
Temp
°C
Dew
Point
°C
Rel
Hum
%
Delta-T
°C
Wind Press
QNH
hPa
Press
MSL
hPa
Rain since
9am
mm
Dir  Spd
km/h
Gust
km/h
Spd
kts
Gust
kts
18/11:30pm 18.9 14.6 3.1 35 7.4 SSE 15 17 8 9 1013.1 1013.0 0.0
18/11:00pm 19.4 14.7 0.9 29 8.3 S 15 17 8 9 1013.2 1013.1 0.0
18/10:30pm 21.0 15.4 -0.3 24 9.4 S 19 20 10 11 1013.2 1013.1 0.0
18/10:00pm 21.0 15.9 -2.1 21 9.9 S 15 17 8 9 1013.2 1013.1 0.0
18/09:30pm 21.7 17.0 -1.6 21 10.1 S 13 15 7 8 1013.1 1013.0 0.0
18/09:00pm 23.3 19.3 -2.3 18 11.1 SW 9 11 5 6 1012.9 1012.8 0.0
18/08:30pm 25.2 21.3 -1.6 17 12.0 SW 9 11 5 6 1012.8 1012.7 0.0
18/08:00pm 28.0 24.4 -2.0 14 13.6 SW 7 9 4 5 1012.7 1012.6 0.0
18/07:30pm 30.9 27.1 -0.7 13 15.0 SW 9 13 5 7 1012.4 1012.3 0.0
18/07:00pm 32.1 27.1 -0.9 12 15.8 SW 15 19 8 10 1012.2 1012.1 0.0
18/06:30pm 33.1 27.2 -2.6 10 16.7 SW 19 26 10 14 1012.2 1012.1 0.0
18/06:00pm 34.1 28.6 -1.8 10 17.1 W 17 24 9 13 1012.1 1012.0 0.0
18/05:30pm 34.4 30.1 -1.6 10 17.3 NW 11 19 6 10 1012.0 1011.9 0.0
18/05:00pm 34.2 29.1 -1.7 10 17.2 NNW 15 20 8 11 1012.4 1012.3 0.0
18/04:30pm 33.9 29.2 -2.0 10 17.1 NW 13 22 7 12 1012.7 1012.6 0.0
18/04:00pm 33.6 28.8 -2.2 10 16.9 NW 13 20 7 11 1013.0 1012.9 0.0
18/03:30pm 33.6 28.3 -0.9 11 16.7 NNW 17 24 9 13 1013.5 1013.4 0.0
18/03:00pm 33.1 28.5 -1.3 11 16.4 NW 13 19 7 10 1014.0 1013.9 0.0
18/02:30pm 32.7 27.3 -1.6 11 16.3 WNW 17 20 9 11 1014.5 1014.4 0.0
18/02:00pm 32.1 27.1 -0.9 12 15.8 NW 15 26 8 14 1014.9 1014.8 0.0
18/01:30pm 31.2 25.5 -0.5 13 15.1 NW 19 30 10 16 1015.4 1015.3 0.0
18/01:00pm 31.4 25.8 -0.3 13 15.2 NW 19 28 10 15 1016.0 1015.9 0.0
18/12:30pm 31.0 24.8 2.3 16 14.4 NNW 24 35 13 19 1016.4 1016.3 0.0
18/12:00pm 28.6 22.8 4.2 21 12.4 NNW 24 30 13 16 1016.7 1016.6 0.0

Other formats

Comma delimited format used in spreadsheet applications
http://www.bom.gov.au/fwo/IDS60801/IDS60801.94685.axf

JavaScript Object Notation format (JSON) in row-major order
http://www.bom.gov.au/fwo/IDS60801/IDS60801.94685.json

Data quality

Most of these data are generated automatically and are frequently updated. Quality checks on data are not normally performed. It is possible for incorrect values to appear. Refer to information at About Latest Weather Observations and please check the disclaimer before using these data.